Dodds Bridge, Indiana
Current Conditions -  °F | °C
As of 8:55 AM on Saturday 22 Nov 2014 (Local Time) from KRSV Reporting Station
Overcast Overcast  
Wind Chill: 40°   Ceiling: 9500
Heat Index: 45°   Visibility: 10mi
Dew Point: 36°   Wind: 9mph
Humidity: 71%   Direction: 190°S
Pressure: 30.19"   Gusts: NA
Location:  39.2135°N, 87.5254°W
Report Text: KRSV 221355Z AUTO 19008KT 10SM SCT070 SCT080 OVC095 07/02 A3019 RMK AO2 T00700020
Loading
Personal Weather Stations






























Interactive Weather Map New forecast layout! Learn more

10-Day Weather Forecast

Advertisements
Track Severe Weather on mobile